createdAt,value
2023-03-28T00:06:45.427Z,5.60
2023-03-28T00:21:51.027Z,5.70
2023-03-28T00:36:55.069Z,5.60
2023-03-28T00:51:59.642Z,5.70
2023-03-28T01:07:02.993Z,5.60
2023-03-28T01:22:29.967Z,5.40
2023-03-28T01:37:47.742Z,5.30
2023-03-28T01:53:13.127Z,5.30
2023-03-28T02:08:17.354Z,5.00
2023-03-28T02:23:32.627Z,4.90
2023-03-28T02:38:47.077Z,4.70
2023-03-28T02:54:11.666Z,4.60
2023-03-28T03:09:15.897Z,4.80
2023-03-28T03:24:18.488Z,4.60
2023-03-28T03:39:21.951Z,4.30
2023-03-28T03:54:24.399Z,4.30
2023-03-28T04:09:28.767Z,4.30
2023-03-28T04:24:37.479Z,4.20
2023-03-28T04:40:01.605Z,4.10
2023-03-28T04:55:21.385Z,4.00
2023-03-28T05:10:25.941Z,4.10
2023-03-28T05:25:33.505Z,3.80
2023-03-28T05:40:37.380Z,3.60
2023-03-28T05:55:41.596Z,4.70
2023-03-28T06:10:45.601Z,5.20
2023-03-28T06:26:11.250Z,4.60
2023-03-28T06:41:17.816Z,4.50
2023-03-28T06:56:20.444Z,4.60
2023-03-28T07:11:23.205Z,4.90
2023-03-28T07:26:27.497Z,5.50
2023-03-28T07:41:30.107Z,5.40
2023-03-28T07:56:32.698Z,5.70
2023-03-28T08:11:45.190Z,5.70
2023-03-28T08:26:48.768Z,6.10
2023-03-28T08:41:58.366Z,6.50
2023-03-28T08:57:04.091Z,6.70
2023-03-28T09:12:27.021Z,6.80
2023-03-28T09:27:37.699Z,7.40
2023-03-28T09:43:00.764Z,7.70
2023-03-28T09:58:21.554Z,8.10
2023-03-28T10:13:53.118Z,8.40
2023-03-28T10:29:02.326Z,8.60
2023-03-28T10:44:18.243Z,8.60
2023-03-28T10:59:41.468Z,9.10
2023-03-28T11:15:02.223Z,7.90
2023-03-28T11:30:20.887Z,9.70
2023-03-28T11:45:53.484Z,10.00
2023-03-28T12:01:12.249Z,10.80
2023-03-28T12:16:23.961Z,10.90
2023-03-28T12:31:53.207Z,11.10
2023-03-28T12:47:12.095Z,11.60
2023-03-28T13:02:18.695Z,12.00
2023-03-28T13:17:39.123Z,11.70
2023-03-28T13:32:48.369Z,12.20
2023-03-28T13:47:59.750Z,12.70
2023-03-28T14:03:15.847Z,13.10
2023-03-28T14:18:22.939Z,13.10
2023-03-28T14:33:31.790Z,13.10
2023-03-28T14:48:36.778Z,12.80
2023-03-28T15:03:42.259Z,13.10
2023-03-28T15:18:47.414Z,13.10
2023-03-28T15:33:51.726Z,12.70
2023-03-28T15:48:58.856Z,12.30
2023-03-28T16:04:24.247Z,11.80
2023-03-28T16:19:28.189Z,11.90
2023-03-28T16:34:30.739Z,11.10
2023-03-28T16:49:33.179Z,11.00
2023-03-28T17:04:36.004Z,10.90
2023-03-28T17:19:38.518Z,10.80
2023-03-28T17:34:41.143Z,11.00
2023-03-28T17:49:43.945Z,10.90
2023-03-28T18:04:46.825Z,10.90
2023-03-28T18:19:58.895Z,9.70
2023-03-28T18:35:01.650Z,10.20
2023-03-28T18:50:05.437Z,9.40
2023-03-28T19:05:08.055Z,9.10
2023-03-28T19:20:13.137Z,8.80
2023-03-28T19:35:15.660Z,8.90
2023-03-28T19:50:18.594Z,9.70
2023-03-28T20:05:21.229Z,9.90
2023-03-28T20:20:24.534Z,9.30
2023-03-28T20:35:27.382Z,8.90
2023-03-28T20:50:34.518Z,9.00
2023-03-28T21:05:41.978Z,8.90
2023-03-28T21:20:46.112Z,7.90
2023-03-28T21:51:12.433Z,8.30
2023-03-28T22:06:16.882Z,8.40
2023-03-28T22:21:19.406Z,8.50
2023-03-28T22:36:22.048Z,8.50
2023-03-28T22:51:28.254Z,8.70
2023-03-28T23:06:31.403Z,8.50
2023-03-28T23:21:35.515Z,8.50
2023-03-28T23:36:41.052Z,8.60
2023-03-28T23:51:43.511Z,8.60
